sensor_id;sensor_type;location;lat;lon;timestamp;pressure;altitude;pressure_sealevel;temperature;humidity
64521;BME280;50896;46.714;17.322;2022-08-19T00:01:54;99780.56;;;23.40;57.79
64521;BME280;50896;46.714;17.322;2022-08-19T00:04:25;99771.31;;;23.36;58.04
64521;BME280;50896;46.714;17.322;2022-08-19T00:06:52;99784.34;;;23.39;58.20
64521;BME280;50896;46.714;17.322;2022-08-19T00:09:20;99778.25;;;23.16;58.95
64521;BME280;50896;46.714;17.322;2022-08-19T00:11:47;99779.69;;;23.34;57.87
64521;BME280;50896;46.714;17.322;2022-08-19T00:14:15;99779.97;;;23.33;57.86
64521;BME280;50896;46.714;17.322;2022-08-19T00:16:45;99770.78;;;23.39;57.31
64521;BME280;50896;46.714;17.322;2022-08-19T00:19:12;99772.34;;;23.30;57.50
64521;BME280;50896;46.714;17.322;2022-08-19T00:21:39;99762.25;;;23.20;58.10
64521;BME280;50896;46.714;17.322;2022-08-19T00:24:08;99756.19;;;23.08;57.94
64521;BME280;50896;46.714;17.322;2022-08-19T00:26:36;99752.69;;;23.07;58.08
64521;BME280;50896;46.714;17.322;2022-08-19T00:29:05;99745.06;;;23.04;58.48
64521;BME280;50896;46.714;17.322;2022-08-19T00:31:33;99740.72;;;23.03;58.56
64521;BME280;50896;46.714;17.322;2022-08-19T00:34:00;99734.97;;;22.94;58.48
64521;BME280;50896;46.714;17.322;2022-08-19T00:36:27;99736.28;;;22.86;58.99
64521;BME280;50896;46.714;17.322;2022-08-19T00:38:55;99726.22;;;22.82;59.51
64521;BME280;50896;46.714;17.322;2022-08-19T00:41:24;99715.28;;;22.72;59.77
64521;BME280;50896;46.714;17.322;2022-08-19T00:44:08;99702.59;;;22.72;59.58
64521;BME280;50896;46.714;17.322;2022-08-19T00:46:37;99710.38;;;22.63;59.69
64521;BME280;50896;46.714;17.322;2022-08-19T00:49:35;99723.66;;;22.65;59.70
64521;BME280;50896;46.714;17.322;2022-08-19T00:52:08;99732.72;;;22.48;60.50
64521;BME280;50896;46.714;17.322;2022-08-19T00:54:36;99729.34;;;22.63;59.98
64521;BME280;50896;46.714;17.322;2022-08-19T00:57:07;99725.84;;;22.68;59.38
64521;BME280;50896;46.714;17.322;2022-08-19T00:59:38;99732.38;;;22.72;59.23
64521;BME280;50896;46.714;17.322;2022-08-19T01:02:26;99720.97;;;22.65;59.58
64521;BME280;50896;46.714;17.322;2022-08-19T01:04:54;99727.19;;;22.65;59.72
64521;BME280;50896;46.714;17.322;2022-08-19T01:07:21;99725.16;;;22.50;60.16
64521;BME280;50896;46.714;17.322;2022-08-19T01:09:49;99727.28;;;22.43;60.43
64521;BME280;50896;46.714;17.322;2022-08-19T01:12:17;99720.72;;;22.39;60.58
64521;BME280;50896;46.714;17.322;2022-08-19T01:14:45;99720.69;;;22.34;60.61
64521;BME280;50896;46.714;17.322;2022-08-19T01:17:13;99715.63;;;22.15;61.18
64521;BME280;50896;46.714;17.322;2022-08-19T01:19:43;99710.25;;;22.21;61.10
64521;BME280;50896;46.714;17.322;2022-08-19T01:24:59;99705.56;;;22.11;61.87
64521;BME280;50896;46.714;17.322;2022-08-19T01:27:26;99708.28;;;22.11;62.28
64521;BME280;50896;46.714;17.322;2022-08-19T01:30:19;99700.94;;;22.06;63.20
64521;BME280;50896;46.714;17.322;2022-08-19T01:32:46;99703.00;;;21.99;63.77
64521;BME280;50896;46.714;17.322;2022-08-19T01:35:13;99698.81;;;22.13;63.78
64521;BME280;50896;46.714;17.322;2022-08-19T01:38:01;99699.25;;;22.32;64.63
64521;BME280;50896;46.714;17.322;2022-08-19T01:40:31;99701.91;;;22.55;65.01
64521;BME280;50896;46.714;17.322;2022-08-19T01:42:59;99718.56;;;22.74;64.55
64521;BME280;50896;46.714;17.322;2022-08-19T01:45:28;99713.00;;;22.91;64.66
64521;BME280;50896;46.714;17.322;2022-08-19T01:47:57;99716.31;;;23.03;64.11
64521;BME280;50896;46.714;17.322;2022-08-19T01:50:28;99702.84;;;23.13;64.03
64521;BME280;50896;46.714;17.322;2022-08-19T01:52:55;99698.28;;;23.19;63.74
64521;BME280;50896;46.714;17.322;2022-08-19T01:55:36;99709.19;;;23.34;63.46
64521;BME280;50896;46.714;17.322;2022-08-19T01:58:11;99718.19;;;23.45;62.90
64521;BME280;50896;46.714;17.322;2022-08-19T02:00:39;99722.03;;;23.54;60.31
64521;BME280;50896;46.714;17.322;2022-08-19T02:03:06;99730.22;;;23.70;57.58
64521;BME280;50896;46.714;17.322;2022-08-19T02:05:33;99736.78;;;23.84;57.11
64521;BME280;50896;46.714;17.322;2022-08-19T02:08:00;99746.34;;;23.92;57.04
64521;BME280;50896;46.714;17.322;2022-08-19T02:10:26;99756.16;;;24.03;56.76
64521;BME280;50896;46.714;17.322;2022-08-19T02:12:53;99746.41;;;24.13;55.94
64521;BME280;50896;46.714;17.322;2022-08-19T02:15:21;99757.53;;;24.21;55.42
64521;BME280;50896;46.714;17.322;2022-08-19T02:17:48;99750.75;;;24.24;55.86
64521;BME280;50896;46.714;17.322;2022-08-19T02:20:16;99739.34;;;24.27;56.15
64521;BME280;50896;46.714;17.322;2022-08-19T02:22:43;99747.22;;;24.39;56.94
64521;BME280;50896;46.714;17.322;2022-08-19T02:25:12;99737.47;;;24.38;57.76
64521;BME280;50896;46.714;17.322;2022-08-19T02:27:40;99740.19;;;24.38;58.40
64521;BME280;50896;46.714;17.322;2022-08-19T02:30:11;99740.69;;;24.35;60.13
64521;BME280;50896;46.714;17.322;2022-08-19T02:32:40;99737.16;;;24.29;61.27
64521;BME280;50896;46.714;17.322;2022-08-19T02:35:12;99720.59;;;24.20;62.25
64521;BME280;50896;46.714;17.322;2022-08-19T02:37:41;99720.06;;;24.18;64.07
64521;BME280;50896;46.714;17.322;2022-08-19T02:40:28;99713.81;;;24.13;65.50
64521;BME280;50896;46.714;17.322;2022-08-19T02:42:55;99718.13;;;24.14;66.05
64521;BME280;50896;46.714;17.322;2022-08-19T02:45:22;99718.66;;;24.05;66.26
64521;BME280;50896;46.714;17.322;2022-08-19T02:47:49;99721.13;;;24.12;65.87
64521;BME280;50896;46.714;17.322;2022-08-19T02:50:16;99710.28;;;24.12;65.33
64521;BME280;50896;46.714;17.322;2022-08-19T02:52:44;99719.50;;;24.16;65.38
64521;BME280;50896;46.714;17.322;2022-08-19T02:55:11;99708.63;;;24.01;65.46
64521;BME280;50896;46.714;17.322;2022-08-19T02:57:38;99713.47;;;23.88;66.20
64521;BME280;50896;46.714;17.322;2022-08-19T03:00:06;99703.38;;;23.68;67.00
64521;BME280;50896;46.714;17.322;2022-08-19T03:02:34;99704.72;;;23.71;66.44
64521;BME280;50896;46.714;17.322;2022-08-19T03:05:03;99701.22;;;23.76;65.94
64521;BME280;50896;46.714;17.322;2022-08-19T03:07:30;99700.69;;;23.74;65.76
64521;BME280;50896;46.714;17.322;2022-08-19T03:09:57;99704.72;;;23.66;65.73
64521;BME280;50896;46.714;17.322;2022-08-19T03:12:24;99708.34;;;23.29;66.79
64521;BME280;50896;46.714;17.322;2022-08-19T03:14:51;99713.19;;;23.21;67.15
64521;BME280;50896;46.714;17.322;2022-08-19T03:17:19;99701.28;;;23.23;66.03
64521;BME280;50896;46.714;17.322;2022-08-19T03:19:46;99707.25;;;23.19;65.79
64521;BME280;50896;46.714;17.322;2022-08-19T03:22:13;99707.50;;;23.23;65.91
64521;BME280;50896;46.714;17.322;2022-08-19T03:24:40;99709.91;;;23.14;66.24
64521;BME280;50896;46.714;17.322;2022-08-19T03:27:07;99709.13;;;23.19;65.38
64521;BME280;50896;46.714;17.322;2022-08-19T03:29:37;99700.91;;;23.09;65.43
64521;BME280;50896;46.714;17.322;2022-08-19T03:32:10;99704.94;;;23.06;65.33
64521;BME280;50896;46.714;17.322;2022-08-19T03:34:57;99702.34;;;23.16;64.88
64521;BME280;50896;46.714;17.322;2022-08-19T03:37:23;99699.09;;;23.19;64.78
64521;BME280;50896;46.714;17.322;2022-08-19T03:39:51;99690.97;;;23.25;64.59
64521;BME280;50896;46.714;17.322;2022-08-19T03:42:18;99695.22;;;23.10;65.21
64521;BME280;50896;46.714;17.322;2022-08-19T03:45:04;99681.94;;;23.09;66.11
64521;BME280;50896;46.714;17.322;2022-08-19T03:47:31;99686.09;;;23.16;66.66
64521;BME280;50896;46.714;17.322;2022-08-19T03:49:58;99683.38;;;23.16;67.05
64521;BME280;50896;46.714;17.322;2022-08-19T03:52:25;99686.31;;;23.15;68.27
64521;BME280;50896;46.714;17.322;2022-08-19T03:54:52;99694.53;;;23.25;67.83
64521;BME280;50896;46.714;17.322;2022-08-19T03:57:19;99697.50;;;23.29;68.73
64521;BME280;50896;46.714;17.322;2022-08-19T03:59:45;99695.13;;;23.43;68.05
64521;BME280;50896;46.714;17.322;2022-08-19T04:02:13;99704.13;;;23.53;67.81
64521;BME280;50896;46.714;17.322;2022-08-19T04:04:42;99697.63;;;23.54;67.78
64521;BME280;50896;46.714;17.322;2022-08-19T04:07:11;99693.56;;;23.57;67.00
64521;BME280;50896;46.714;17.322;2022-08-19T04:09:39;99683.28;;;23.64;67.14
64521;BME280;50896;46.714;17.322;2022-08-19T04:12:07;99681.09;;;23.66;67.08
64521;BME280;50896;46.714;17.322;2022-08-19T04:14:34;99689.81;;;23.74;67.63
64521;BME280;50896;46.714;17.322;2022-08-19T04:17:02;99702.31;;;23.80;67.95
64521;BME280;50896;46.714;17.322;2022-08-19T04:19:35;99705.81;;;23.80;68.09
64521;BME280;50896;46.714;17.322;2022-08-19T04:22:03;99707.75;;;23.85;67.52
64521;BME280;50896;46.714;17.322;2022-08-19T04:24:30;99718.13;;;23.93;67.75
64521;BME280;50896;46.714;17.322;2022-08-19T04:26:59;99722.47;;;23.99;67.53
64521;BME280;50896;46.714;17.322;2022-08-19T04:29:26;99718.41;;;24.07;68.22
64521;BME280;50896;46.714;17.322;2022-08-19T04:31:55;99711.88;;;24.08;69.07
64521;BME280;50896;46.714;17.322;2022-08-19T04:34:25;99716.50;;;24.08;69.47
64521;BME280;50896;46.714;17.322;2022-08-19T04:36:54;99725.19;;;24.10;69.93
64521;BME280;50896;46.714;17.322;2022-08-19T04:39:27;99733.09;;;24.16;70.06
64521;BME280;50896;46.714;17.322;2022-08-19T04:42:18;99735.00;;;24.26;70.47
64521;BME280;50896;46.714;17.322;2022-08-19T04:45:06;99741.25;;;24.32;71.40
64521;BME280;50896;46.714;17.322;2022-08-19T04:47:39;99754.56;;;24.38;71.54
64521;BME280;50896;46.714;17.322;2022-08-19T04:50:26;99756.47;;;24.48;71.86
64521;BME280;50896;46.714;17.322;2022-08-19T04:52:53;99749.97;;;24.49;72.38
64521;BME280;50896;46.714;17.322;2022-08-19T04:55:22;99758.44;;;24.63;72.08
64521;BME280;50896;46.714;17.322;2022-08-19T04:57:51;99756.78;;;24.67;72.44
64521;BME280;50896;46.714;17.322;2022-08-19T05:00:18;99758.97;;;24.70;73.37
64521;BME280;50896;46.714;17.322;2022-08-19T05:02:45;99750.81;;;24.76;72.45
64521;BME280;50896;46.714;17.322;2022-08-19T05:05:12;99735.59;;;24.80;72.77
64521;BME280;50896;46.714;17.322;2022-08-19T05:07:39;99725.78;;;24.84;72.54
64521;BME280;50896;46.714;17.322;2022-08-19T05:10:07;99724.41;;;24.86;72.61
64521;BME280;50896;46.714;17.322;2022-08-19T05:12:34;99725.22;;;24.92;72.59
64521;BME280;50896;46.714;17.322;2022-08-19T05:15:02;99720.59;;;24.98;73.77
64521;BME280;50896;46.714;17.322;2022-08-19T05:17:30;99721.66;;;25.02;71.30
64521;BME280;50896;46.714;17.322;2022-08-19T05:20:05;99741.78;;;25.11;72.56
64521;BME280;50896;46.714;17.322;2022-08-19T05:22:51;99761.06;;;25.20;70.60
64521;BME280;50896;46.714;17.322;2022-08-19T05:25:20;99751.81;;;25.26;70.71
64521;BME280;50896;46.714;17.322;2022-08-19T05:27:47;99770.03;;;25.36;70.52
64521;BME280;50896;46.714;17.322;2022-08-19T05:30:15;99783.38;;;25.42;70.45
64521;BME280;50896;46.714;17.322;2022-08-19T05:32:43;99786.88;;;25.48;69.86
64521;BME280;50896;46.714;17.322;2022-08-19T05:35:10;99792.84;;;25.55;70.63
64521;BME280;50896;46.714;17.322;2022-08-19T05:37:38;99790.09;;;25.61;70.56
64521;BME280;50896;46.714;17.322;2022-08-19T05:40:08;99796.88;;;25.63;69.70
64521;BME280;50896;46.714;17.322;2022-08-19T05:42:35;99792.28;;;25.64;69.06
64521;BME280;50896;46.714;17.322;2022-08-19T05:45:03;99797.94;;;25.67;69.68
64521;BME280;50896;46.714;17.322;2022-08-19T05:47:30;99799.88;;;25.67;69.69
64521;BME280;50896;46.714;17.322;2022-08-19T05:49:58;99811.03;;;25.70;69.59
64521;BME280;50896;46.714;17.322;2022-08-19T05:52:25;99820.00;;;25.76;68.60
64521;BME280;50896;46.714;17.322;2022-08-19T05:54:53;99826.50;;;25.80;68.09
64521;BME280;50896;46.714;17.322;2022-08-19T05:57:23;99827.31;;;25.86;68.33
64521;BME280;50896;46.714;17.322;2022-08-19T05:59:51;99826.47;;;25.90;66.02
64521;BME280;50896;46.714;17.322;2022-08-19T06:02:23;99825.38;;;25.91;66.33
64521;BME280;50896;46.714;17.322;2022-08-19T06:04:50;99834.06;;;25.93;66.97
64521;BME280;50896;46.714;17.322;2022-08-19T06:07:17;99844.41;;;26.02;67.68
64521;BME280;50896;46.714;17.322;2022-08-19T06:09:43;99859.38;;;26.09;67.95
64521;BME280;50896;46.714;17.322;2022-08-19T06:12:27;99861.75;;;26.16;68.41
64521;BME280;50896;46.714;17.322;2022-08-19T06:14:59;99884.09;;;26.18;68.13
64521;BME280;50896;46.714;17.322;2022-08-19T06:17:28;99871.06;;;26.10;64.65
64521;BME280;50896;46.714;17.322;2022-08-19T06:19:57;99876.28;;;25.91;63.94
64521;BME280;50896;46.714;17.322;2022-08-19T06:22:25;99865.72;;;25.69;63.64
64521;BME280;50896;46.714;17.322;2022-08-19T06:24:52;99855.66;;;25.59;64.31
64521;BME280;50896;46.714;17.322;2022-08-19T06:27:21;99852.75;;;25.40;64.81
64521;BME280;50896;46.714;17.322;2022-08-19T06:29:48;99843.47;;;25.51;64.59
64521;BME280;50896;46.714;17.322;2022-08-19T06:32:17;99836.34;;;25.66;64.04
64521;BME280;50896;46.714;17.322;2022-08-19T06:34:45;99856.75;;;25.73;64.57
64521;BME280;50896;46.714;17.322;2022-08-19T06:37:13;99869.22;;;25.85;63.65
64521;BME280;50896;46.714;17.322;2022-08-19T06:39:42;99859.13;;;25.90;63.63
64521;BME280;50896;46.714;17.322;2022-08-19T06:42:09;99854.47;;;25.96;63.65
64521;BME280;50896;46.714;17.322;2022-08-19T06:44:41;99853.09;;;25.99;63.74
64521;BME280;50896;46.714;17.322;2022-08-19T06:47:16;99846.00;;;26.08;62.82
64521;BME280;50896;46.714;17.322;2022-08-19T06:49:55;99824.47;;;26.12;62.95
64521;BME280;50896;46.714;17.322;2022-08-19T06:52:30;99822.72;;;26.31;62.11
64521;BME280;50896;46.714;17.322;2022-08-19T06:55:00;99823.22;;;26.38;62.16
64521;BME280;50896;46.714;17.322;2022-08-19T06:57:32;99820.41;;;26.54;61.73
64521;BME280;50896;46.714;17.322;2022-08-19T07:00:00;99812.47;;;26.63;61.51
64521;BME280;50896;46.714;17.322;2022-08-19T07:02:27;99812.41;;;26.73;61.96
64521;BME280;50896;46.714;17.322;2022-08-19T07:04:53;99807.19;;;26.76;61.81
64521;BME280;50896;46.714;17.322;2022-08-19T07:07:22;99805.53;;;26.81;61.72
64521;BME280;50896;46.714;17.322;2022-08-19T07:09:50;99800.56;;;26.88;61.78
64521;BME280;50896;46.714;17.322;2022-08-19T07:12:31;99796.19;;;26.87;63.11
64521;BME280;50896;46.714;17.322;2022-08-19T07:15:07;99804.00;;;26.99;62.87
64521;BME280;50896;46.714;17.322;2022-08-19T07:17:37;99803.16;;;27.03;63.28
64521;BME280;50896;46.714;17.322;2022-08-19T07:20:07;99783.75;;;27.05;63.58
64521;BME280;50896;46.714;17.322;2022-08-19T07:22:39;99789.97;;;27.10;64.16
64521;BME280;50896;46.714;17.322;2022-08-19T07:25:07;99801.16;;;27.14;63.75
64521;BME280;50896;46.714;17.322;2022-08-19T07:27:35;99796.19;;;27.16;64.36
64521;BME280;50896;46.714;17.322;2022-08-19T07:30:03;99809.50;;;27.23;62.96
64521;BME280;50896;46.714;17.322;2022-08-19T07:32:31;99811.03;;;27.34;62.94
64521;BME280;50896;46.714;17.322;2022-08-19T07:34:58;99812.31;;;27.42;61.90
64521;BME280;50896;46.714;17.322;2022-08-19T07:37:27;99814.88;;;27.28;61.92
64521;BME280;50896;46.714;17.322;2022-08-19T07:40:00;99827.56;;;27.19;62.42
64521;BME280;50896;46.714;17.322;2022-08-19T07:42:26;99830.66;;;27.07;62.98
64521;BME280;50896;46.714;17.322;2022-08-19T07:44:57;99847.31;;;27.05;61.99
64521;BME280;50896;46.714;17.322;2022-08-19T07:47:24;99852.00;;;27.29;60.54
64521;BME280;50896;46.714;17.322;2022-08-19T07:50:11;99867.03;;;27.56;59.48
64521;BME280;50896;46.714;17.322;2022-08-19T07:52:38;99871.09;;;27.58;59.27
64521;BME280;50896;46.714;17.322;2022-08-19T07:55:08;99875.06;;;27.47;58.76
64521;BME280;50896;46.714;17.322;2022-08-19T07:57:55;99880.63;;;27.37;61.97
64521;BME280;50896;46.714;17.322;2022-08-19T08:00:22;99872.44;;;27.37;60.29
64521;BME280;50896;46.714;17.322;2022-08-19T08:02:51;99872.97;;;27.34;60.57
64521;BME280;50896;46.714;17.322;2022-08-19T08:05:22;99868.31;;;27.34;60.14
64521;BME280;50896;46.714;17.322;2022-08-19T08:08:11;99853.81;;;27.44;60.98
64521;BME280;50896;46.714;17.322;2022-08-19T08:10:58;99844.84;;;27.62;60.51
64521;BME280;50896;46.714;17.322;2022-08-19T08:13:26;99860.09;;;27.69;57.21
64521;BME280;50896;46.714;17.322;2022-08-19T08:15:55;99857.00;;;27.75;55.87
64521;BME280;50896;46.714;17.322;2022-08-19T08:18:25;99871.06;;;27.88;54.78
64521;BME280;50896;46.714;17.322;2022-08-19T08:20:56;99870.69;;;28.00;53.24
64521;BME280;50896;46.714;17.322;2022-08-19T08:23:24;99878.00;;;28.04;53.81
64521;BME280;50896;46.714;17.322;2022-08-19T08:25:55;99875.22;;;28.09;53.85
64521;BME280;50896;46.714;17.322;2022-08-19T08:28:24;99875.06;;;28.20;52.29
64521;BME280;50896;46.714;17.322;2022-08-19T08:30:54;99868.81;;;28.19;53.55
64521;BME280;50896;46.714;17.322;2022-08-19T08:33:25;99867.63;;;28.25;53.75
64521;BME280;50896;46.714;17.322;2022-08-19T08:36:04;99861.19;;;28.35;54.54
64521;BME280;50896;46.714;17.322;2022-08-19T08:38:32;99872.81;;;28.46;55.16
64521;BME280;50896;46.714;17.322;2022-08-19T08:43:58;99870.91;;;28.66;53.81
64521;BME280;50896;46.714;17.322;2022-08-19T08:46:30;99871.53;;;28.57;52.60
64521;BME280;50896;46.714;17.322;2022-08-19T08:49:29;99876.50;;;28.55;53.06
64521;BME280;50896;46.714;17.322;2022-08-19T08:52:18;99884.94;;;28.40;55.33
64521;BME280;50896;46.714;17.322;2022-08-19T08:54:50;99884.00;;;28.25;54.11
64521;BME280;50896;46.714;17.322;2022-08-19T08:57:27;99884.84;;;28.26;49.34
64521;BME280;50896;46.714;17.322;2022-08-19T09:00:10;99876.94;;;28.43;49.03
64521;BME280;50896;46.714;17.322;2022-08-19T09:02:41;99877.53;;;28.40;49.38
64521;BME280;50896;46.714;17.322;2022-08-19T09:05:10;99877.06;;;28.52;47.72
64521;BME280;50896;46.714;17.322;2022-08-19T09:10:39;99860.28;;;28.64;47.35
64521;BME280;50896;46.714;17.322;2022-08-19T09:16:12;99877.78;;;28.63;48.88
64521;BME280;50896;46.714;17.322;2022-08-19T09:18:46;99870.94;;;28.60;49.18
64521;BME280;50896;46.714;17.322;2022-08-19T09:21:14;99873.94;;;28.64;48.38
64521;BME280;50896;46.714;17.322;2022-08-19T09:23:42;99872.75;;;28.70;47.39
64521;BME280;50896;46.714;17.322;2022-08-19T09:26:11;99876.00;;;28.72;47.99
64521;BME280;50896;46.714;17.322;2022-08-19T09:28:44;99866.59;;;28.78;47.81
64521;BME280;50896;46.714;17.322;2022-08-19T09:31:17;99868.97;;;28.85;47.50
64521;BME280;50896;46.714;17.322;2022-08-19T09:33:44;99878.28;;;28.84;47.87
64521;BME280;50896;46.714;17.322;2022-08-19T09:36:18;99888.72;;;28.82;47.67
64521;BME280;50896;46.714;17.322;2022-08-19T09:39:00;99892.91;;;28.93;47.99
64521;BME280;50896;46.714;17.322;2022-08-19T09:41:28;99893.50;;;28.90;48.15
64521;BME280;50896;46.714;17.322;2022-08-19T09:43:56;99891.22;;;28.78;47.23
64521;BME280;50896;46.714;17.322;2022-08-19T09:46:26;99901.53;;;28.68;47.02
64521;BME280;50896;46.714;17.322;2022-08-19T09:48:57;99898.25;;;28.66;47.50
64521;BME280;50896;46.714;17.322;2022-08-19T09:51:45;99881.44;;;28.53;46.19
64521;BME280;50896;46.714;17.322;2022-08-19T09:54:34;99866.16;;;28.52;47.05
64521;BME280;50896;46.714;17.322;2022-08-19T09:57:02;99877.16;;;28.47;47.93
64521;BME280;50896;46.714;17.322;2022-08-19T09:59:33;99871.53;;;28.38;48.42
64521;BME280;50896;46.714;17.322;2022-08-19T10:02:01;99856.56;;;28.36;48.79
64521;BME280;50896;46.714;17.322;2022-08-19T10:04:36;99862.88;;;28.31;50.13
64521;BME280;50896;46.714;17.322;2022-08-19T10:07:22;99886.63;;;28.36;51.10
64521;BME280;50896;46.714;17.322;2022-08-19T10:10:04;99905.47;;;28.37;50.24
64521;BME280;50896;46.714;17.322;2022-08-19T10:12:34;99906.91;;;28.29;48.51
64521;BME280;50896;46.714;17.322;2022-08-19T10:15:02;99921.75;;;28.23;48.73
64521;BME280;50896;46.714;17.322;2022-08-19T10:17:29;99931.41;;;28.16;49.03
64521;BME280;50896;46.714;17.322;2022-08-19T10:19:59;99935.78;;;28.17;49.22
64521;BME280;50896;46.714;17.322;2022-08-19T10:22:26;99937.16;;;28.14;49.40
64521;BME280;50896;46.714;17.322;2022-08-19T10:24:53;99934.47;;;28.09;49.05
64521;BME280;50896;46.714;17.322;2022-08-19T10:27:20;99948.81;;;27.95;50.15
64521;BME280;50896;46.714;17.322;2022-08-19T10:29:47;99949.00;;;27.80;49.81
64521;BME280;50896;46.714;17.322;2022-08-19T10:32:14;99943.91;;;27.68;50.21
64521;BME280;50896;46.714;17.322;2022-08-19T10:34:41;99931.75;;;27.55;50.74
64521;BME280;50896;46.714;17.322;2022-08-19T10:37:15;99916.44;;;27.59;50.49
64521;BME280;50896;46.714;17.322;2022-08-19T10:39:56;99915.50;;;27.69;50.42
64521;BME280;50896;46.714;17.322;2022-08-19T10:42:23;99939.13;;;27.84;48.98
64521;BME280;50896;46.714;17.322;2022-08-19T10:44:50;99965.88;;;28.11;50.23
64521;BME280;50896;46.714;17.322;2022-08-19T10:47:17;99975.97;;;28.16;50.15
64521;BME280;50896;46.714;17.322;2022-08-19T10:49:52;99994.06;;;28.07;49.22
64521;BME280;50896;46.714;17.322;2022-08-19T10:52:44;100017.41;;;27.94;49.55
64521;BME280;50896;46.714;17.322;2022-08-19T10:55:21;100018.25;;;27.89;49.27
64521;BME280;50896;46.714;17.322;2022-08-19T10:58:12;100040.72;;;27.81;49.21
64521;BME280;50896;46.714;17.322;2022-08-19T11:00:41;100051.13;;;27.79;49.32
64521;BME280;50896;46.714;17.322;2022-08-19T11:03:09;100059.06;;;27.75;48.92
64521;BME280;50896;46.714;17.322;2022-08-19T11:05:36;100064.88;;;27.69;49.54
64521;BME280;50896;46.714;17.322;2022-08-19T11:08:06;100072.91;;;27.55;49.33
64521;BME280;50896;46.714;17.322;2022-08-19T11:10:51;100090.97;;;27.45;48.80
64521;BME280;50896;46.714;17.322;2022-08-19T11:13:20;100103.81;;;27.40;49.12
64521;BME280;50896;46.714;17.322;2022-08-19T11:15:47;100098.72;;;27.23;50.12
64521;BME280;50896;46.714;17.322;2022-08-19T11:18:14;100092.50;;;27.12;50.27
64521;BME280;50896;46.714;17.322;2022-08-19T11:20:41;100095.50;;;27.05;51.08
64521;BME280;50896;46.714;17.322;2022-08-19T11:23:07;100083.56;;;26.96;52.01
64521;BME280;50896;46.714;17.322;2022-08-19T11:25:34;100071.03;;;26.90;51.46
64521;BME280;50896;46.714;17.322;2022-08-19T11:28:01;100051.44;;;26.83;52.15
64521;BME280;50896;46.714;17.322;2022-08-19T11:30:28;100027.47;;;26.80;52.27
64521;BME280;50896;46.714;17.322;2022-08-19T11:32:55;100016.31;;;26.76;52.38
64521;BME280;50896;46.714;17.322;2022-08-19T11:35:22;100036.47;;;26.75;53.45
64521;BME280;50896;46.714;17.322;2022-08-19T11:37:49;100058.31;;;26.70;54.08
64521;BME280;50896;46.714;17.322;2022-08-19T11:40:16;100090.22;;;26.64;53.64
64521;BME280;50896;46.714;17.322;2022-08-19T11:42:43;100109.28;;;26.64;53.21
64521;BME280;50896;46.714;17.322;2022-08-19T11:45:23;100129.47;;;26.63;54.80
64521;BME280;50896;46.714;17.322;2022-08-19T11:47:50;100147.50;;;26.49;55.16
64521;BME280;50896;46.714;17.322;2022-08-19T11:50:17;100147.75;;;26.37;55.39
64521;BME280;50896;46.714;17.322;2022-08-19T11:52:44;100104.19;;;26.16;55.15
64521;BME280;50896;46.714;17.322;2022-08-19T11:55:13;100065.78;;;26.07;54.87
64521;BME280;50896;46.714;17.322;2022-08-19T11:57:40;100003.69;;;25.99;55.71
64521;BME280;50896;46.714;17.322;2022-08-19T12:00:09;99949.53;;;25.82;56.68
64521;BME280;50896;46.714;17.322;2022-08-19T12:02:38;99958.00;;;25.65;56.78
64521;BME280;50896;46.714;17.322;2022-08-19T12:05:05;99950.13;;;25.48;56.58
64521;BME280;50896;46.714;17.322;2022-08-19T12:07:38;99927.53;;;25.53;56.84
64521;BME280;50896;46.714;17.322;2022-08-19T12:10:06;99890.28;;;25.43;60.03
64521;BME280;50896;46.714;17.322;2022-08-19T12:12:34;99889.19;;;25.39;60.91
64521;BME280;50896;46.714;17.322;2022-08-19T12:15:01;99921.00;;;25.23;62.51
64521;BME280;50896;46.714;17.322;2022-08-19T12:17:28;99946.81;;;25.15;62.33
64521;BME280;50896;46.714;17.322;2022-08-19T12:19:57;99974.25;;;24.93;65.97
64521;BME280;50896;46.714;17.322;2022-08-19T12:22:24;99940.25;;;24.90;64.46
64521;BME280;50896;46.714;17.322;2022-08-19T12:24:51;99941.38;;;24.89;63.08
64521;BME280;50896;46.714;17.322;2022-08-19T12:27:19;99989.78;;;25.03;63.68
64521;BME280;50896;46.714;17.322;2022-08-19T12:30:09;99989.22;;;25.06;62.70
64521;BME280;50896;46.714;17.322;2022-08-19T12:32:37;99988.66;;;24.99;65.26
64521;BME280;50896;46.714;17.322;2022-08-19T12:35:05;99990.03;;;24.91;66.49
64521;BME280;50896;46.714;17.322;2022-08-19T12:37:32;99970.56;;;24.51;68.23
64521;BME280;50896;46.714;17.322;2022-08-19T12:39:59;99974.84;;;24.37;67.07
64521;BME280;50896;46.714;17.322;2022-08-19T12:42:26;99983.81;;;24.37;70.89
64521;BME280;50896;46.714;17.322;2022-08-19T12:44:53;99993.78;;;24.74;67.20
64521;BME280;50896;46.714;17.322;2022-08-19T12:47:20;99991.59;;;24.77;67.83
64521;BME280;50896;46.714;17.322;2022-08-19T12:49:48;99985.81;;;24.57;71.96
64521;BME280;50896;46.714;17.322;2022-08-19T12:52:24;99971.72;;;24.61;71.37
64521;BME280;50896;46.714;17.322;2022-08-19T12:54:54;99957.00;;;24.56;71.95
64521;BME280;50896;46.714;17.322;2022-08-19T12:57:26;99923.06;;;24.64;69.87
64521;BME280;50896;46.714;17.322;2022-08-19T13:00:05;99906.25;;;24.72;69.00
64521;BME280;50896;46.714;17.322;2022-08-19T13:02:37;99905.47;;;24.77;66.78
64521;BME280;50896;46.714;17.322;2022-08-19T13:05:07;99891.06;;;24.87;65.04
64521;BME280;50896;46.714;17.322;2022-08-19T13:07:36;99910.13;;;25.02;64.78
64521;BME280;50896;46.714;17.322;2022-08-19T13:10:08;99934.03;;;25.00;66.35
64521;BME280;50896;46.714;17.322;2022-08-19T13:12:35;99924.81;;;25.06;65.94
64521;BME280;50896;46.714;17.322;2022-08-19T13:15:02;99910.66;;;25.30;63.61
64521;BME280;50896;46.714;17.322;2022-08-19T13:17:37;99907.13;;;25.55;63.57
64521;BME280;50896;46.714;17.322;2022-08-19T13:20:05;99918.78;;;25.76;62.12